sensor_id;sensor_type;location;lat;lon;timestamp;pressure;altitude;pressure_sealevel;temperature;humidity
42671;BME280;28283;55.426;37.756;2023-08-21T00:04:41;99407.75;;;15.87;81.00
42671;BME280;28283;55.426;37.756;2023-08-21T00:09:41;99461.41;;;16.32;81.10
42671;BME280;28283;55.426;37.756;2023-08-21T00:14:43;99441.69;;;16.01;81.14
42671;BME280;28283;55.426;37.756;2023-08-21T00:19:43;99449.38;;;16.05;80.83
42671;BME280;28283;55.426;37.756;2023-08-21T00:24:44;99469.66;;;16.14;81.03
42671;BME280;28283;55.426;37.756;2023-08-21T00:29:45;99457.50;;;16.05;82.16
42671;BME280;28283;55.426;37.756;2023-08-21T00:34:45;99479.00;;;16.30;81.22
42671;BME280;28283;55.426;37.756;2023-08-21T00:39:46;99265.81;;;14.68;82.11
42671;BME280;28283;55.426;37.756;2023-08-21T00:44:46;99474.69;;;15.98;81.98
42671;BME280;28283;55.426;37.756;2023-08-21T00:49:47;99467.16;;;15.89;82.15
42671;BME280;28283;55.426;37.756;2023-08-21T00:54:48;99469.94;;;15.82;82.16
42671;BME280;28283;55.426;37.756;2023-08-21T00:59:50;99465.47;;;15.76;81.99
42671;BME280;28283;55.426;37.756;2023-08-21T01:04:51;99476.59;;;15.68;82.11
42671;BME280;28283;55.426;37.756;2023-08-21T01:09:57;99471.78;;;15.70;82.99
42671;BME280;28283;55.426;37.756;2023-08-21T01:15:04;99476.09;;;15.59;82.55
42671;BME280;28283;55.426;37.756;2023-08-21T01:20:07;99480.06;;;15.44;82.94
42671;BME280;28283;55.426;37.756;2023-08-21T01:25:12;99448.44;;;15.26;83.13
42671;BME280;28283;55.426;37.756;2023-08-21T01:30:13;99459.09;;;15.40;83.60
42671;BME280;28283;55.426;37.756;2023-08-21T01:35:14;99477.19;;;15.58;83.58
42671;BME280;28283;55.426;37.756;2023-08-21T01:40:22;99475.25;;;15.77;82.37
42671;BME280;28283;55.426;37.756;2023-08-21T01:45:23;99478.00;;;15.58;82.40
42671;BME280;28283;55.426;37.756;2023-08-21T01:50:23;99480.56;;;15.53;82.44
42671;BME280;28283;55.426;37.756;2023-08-21T01:55:24;99446.06;;;15.18;82.04
42671;BME280;28283;55.426;37.756;2023-08-21T02:00:25;99480.69;;;15.28;81.79
42671;BME280;28283;55.426;37.756;2023-08-21T02:05:25;99481.84;;;15.20;81.53
42671;BME280;28283;55.426;37.756;2023-08-21T02:10:26;99473.88;;;15.07;81.10
42671;BME280;28283;55.426;37.756;2023-08-21T02:15:27;99479.09;;;14.90;81.45
42671;BME280;28283;55.426;37.756;2023-08-21T02:20:28;99468.19;;;14.78;82.15
42671;BME280;28283;55.426;37.756;2023-08-21T02:25:30;99496.47;;;14.82;82.09
42671;BME280;28283;55.426;37.756;2023-08-21T02:30:30;99499.00;;;14.77;82.43
42671;BME280;28283;55.426;37.756;2023-08-21T02:35:31;99504.34;;;14.84;82.06
42671;BME280;28283;55.426;37.756;2023-08-21T02:40:32;99488.41;;;14.76;82.65
42671;BME280;28283;55.426;37.756;2023-08-21T02:45:32;99476.38;;;14.72;81.93
42671;BME280;28283;55.426;37.756;2023-08-21T02:50:33;99506.38;;;14.88;81.76
42671;BME280;28283;55.426;37.756;2023-08-21T02:55:34;99491.44;;;14.86;81.63
42671;BME280;28283;55.426;37.756;2023-08-21T03:00:35;99504.63;;;14.94;81.71
42671;BME280;28283;55.426;37.756;2023-08-21T03:05:36;99500.97;;;14.88;81.79
42671;BME280;28283;55.426;37.756;2023-08-21T03:10:37;99477.97;;;14.79;81.41
42671;BME280;28283;55.426;37.756;2023-08-21T03:15:38;99504.03;;;14.92;81.59
42671;BME280;28283;55.426;37.756;2023-08-21T03:20:44;99506.31;;;14.95;81.84
42671;BME280;28283;55.426;37.756;2023-08-21T03:25:45;99523.38;;;14.96;81.58
42671;BME280;28283;55.426;37.756;2023-08-21T03:30:45;99511.72;;;14.95;81.70
42671;BME280;28283;55.426;37.756;2023-08-21T03:35:46;99505.19;;;14.84;81.60
42671;BME280;28283;55.426;37.756;2023-08-21T03:40:47;99525.00;;;14.78;81.73
42671;BME280;28283;55.426;37.756;2023-08-21T03:45:47;99516.06;;;14.78;82.01
42671;BME280;28283;55.426;37.756;2023-08-21T03:50:49;99503.66;;;14.70;82.42
42671;BME280;28283;55.426;37.756;2023-08-21T03:55:50;99528.94;;;14.82;82.25
42671;BME280;28283;55.426;37.756;2023-08-21T04:00:51;99529.59;;;14.96;82.19
42671;BME280;28283;55.426;37.756;2023-08-21T04:05:53;99524.72;;;15.05;81.75
42671;BME280;28283;55.426;37.756;2023-08-21T04:10:54;99516.59;;;15.05;81.46
42671;BME280;28283;55.426;37.756;2023-08-21T04:15:59;99506.59;;;15.05;81.43
42671;BME280;28283;55.426;37.756;2023-08-21T04:21:00;99468.13;;;14.85;81.29
42671;BME280;28283;55.426;37.756;2023-08-21T04:26:04;99515.91;;;15.28;81.30
42671;BME280;28283;55.426;37.756;2023-08-21T04:31:05;99513.34;;;15.33;80.51
42671;BME280;28283;55.426;37.756;2023-08-21T04:36:06;99503.66;;;15.07;80.57
42671;BME280;28283;55.426;37.756;2023-08-21T04:41:07;99507.59;;;15.11;81.38
42671;BME280;28283;55.426;37.756;2023-08-21T04:46:08;99512.44;;;15.21;80.66
42671;BME280;28283;55.426;37.756;2023-08-21T04:51:08;99512.28;;;15.34;80.97
42671;BME280;28283;55.426;37.756;2023-08-21T04:56:09;99512.34;;;15.46;80.28
42671;BME280;28283;55.426;37.756;2023-08-21T05:01:09;99520.47;;;15.46;79.71
42671;BME280;28283;55.426;37.756;2023-08-21T05:06:10;99508.75;;;15.34;80.85
42671;BME280;28283;55.426;37.756;2023-08-21T05:11:11;99530.75;;;15.56;80.97
42671;BME280;28283;55.426;37.756;2023-08-21T05:16:11;99533.81;;;15.78;79.63
42671;BME280;28283;55.426;37.756;2023-08-21T05:21:12;99521.72;;;15.92;79.02
42671;BME280;28283;55.426;37.756;2023-08-21T05:26:12;99525.44;;;16.21;78.09
42671;BME280;28283;55.426;37.756;2023-08-21T05:31:13;99531.94;;;16.20;77.31
42671;BME280;28283;55.426;37.756;2023-08-21T05:36:14;99522.88;;;16.38;77.73
42671;BME280;28283;55.426;37.756;2023-08-21T05:41:14;99429.22;;;16.12;76.25
42671;BME280;28283;55.426;37.756;2023-08-21T05:46:15;99509.16;;;17.04;74.11
42671;BME280;28283;55.426;37.756;2023-08-21T05:51:15;99527.41;;;17.61;73.59
42671;BME280;28283;55.426;37.756;2023-08-21T05:56:16;99527.41;;;17.21;72.79
42671;BME280;28283;55.426;37.756;2023-08-21T06:01:16;99525.59;;;17.38;73.68
42671;BME280;28283;55.426;37.756;2023-08-21T06:06:17;99451.81;;;16.65;72.12
42671;BME280;28283;55.426;37.756;2023-08-21T06:11:17;99526.94;;;17.81;73.65
42671;BME280;28283;55.426;37.756;2023-08-21T06:16:18;99494.88;;;18.12;70.26
42671;BME280;28283;55.426;37.756;2023-08-21T06:21:19;99511.25;;;18.85;70.94
42671;BME280;28283;55.426;37.756;2023-08-21T06:26:19;99497.44;;;18.92;67.09
42671;BME280;28283;55.426;37.756;2023-08-21T06:31:19;99519.25;;;19.14;65.52
42671;BME280;28283;55.426;37.756;2023-08-21T06:36:20;99513.41;;;19.05;65.94
42671;BME280;28283;55.426;37.756;2023-08-21T06:41:21;99507.44;;;19.30;64.11
42671;BME280;28283;55.426;37.756;2023-08-21T06:46:21;99501.16;;;19.07;63.80
42671;BME280;28283;55.426;37.756;2023-08-21T06:51:22;99513.47;;;19.32;66.18
42671;BME280;28283;55.426;37.756;2023-08-21T06:56:23;99497.41;;;19.58;63.11
42671;BME280;28283;55.426;37.756;2023-08-21T07:01:23;99514.41;;;20.25;63.54
42671;BME280;28283;55.426;37.756;2023-08-21T07:06:24;99521.59;;;20.36;60.48
42671;BME280;28283;55.426;37.756;2023-08-21T07:11:24;99520.19;;;20.28;61.02
42671;BME280;28283;55.426;37.756;2023-08-21T07:16:25;99475.66;;;19.14;58.98
42671;BME280;28283;55.426;37.756;2023-08-21T07:21:26;99523.59;;;19.15;60.37
42671;BME280;28283;55.426;37.756;2023-08-21T07:26:26;99527.28;;;19.48;59.68
42671;BME280;28283;55.426;37.756;2023-08-21T07:31:28;99418.38;;;19.08;58.02
42671;BME280;28283;55.426;37.756;2023-08-21T07:36:31;99517.16;;;19.70;57.86
42671;BME280;28283;55.426;37.756;2023-08-21T07:41:32;99524.88;;;19.51;58.09
42671;BME280;28283;55.426;37.756;2023-08-21T07:46:32;99521.75;;;19.92;59.30
42671;BME280;28283;55.426;37.756;2023-08-21T07:51:33;99511.75;;;19.97;56.63
42671;BME280;28283;55.426;37.756;2023-08-21T07:56:33;99510.81;;;20.51;57.93
42671;BME280;28283;55.426;37.756;2023-08-21T08:01:35;99509.84;;;20.68;53.97
42671;BME280;28283;55.426;37.756;2023-08-21T08:06:36;99460.47;;;20.42;53.30
42671;BME280;28283;55.426;37.756;2023-08-21T08:11:36;99482.34;;;20.85;53.67
42671;BME280;28283;55.426;37.756;2023-08-21T08:16:37;99482.19;;;21.07;52.93
42671;BME280;28283;55.426;37.756;2023-08-21T08:21:38;99493.69;;;21.14;51.33
42671;BME280;28283;55.426;37.756;2023-08-21T08:26:38;99504.44;;;20.83;51.29
42671;BME280;28283;55.426;37.756;2023-08-21T08:31:39;99496.56;;;20.44;50.95
42671;BME280;28283;55.426;37.756;2023-08-21T08:36:40;99492.66;;;20.72;53.54
42671;BME280;28283;55.426;37.756;2023-08-21T08:41:58;99493.38;;;21.05;51.01
42671;BME280;28283;55.426;37.756;2023-08-21T08:47:00;99477.84;;;21.26;49.90
42671;BME280;28283;55.426;37.756;2023-08-21T08:52:01;99468.91;;;21.41;49.02
42671;BME280;28283;55.426;37.756;2023-08-21T08:57:02;99476.84;;;21.43;49.22
42671;BME280;28283;55.426;37.756;2023-08-21T09:02:03;99476.66;;;21.75;48.40
42671;BME280;28283;55.426;37.756;2023-08-21T09:07:11;99478.00;;;22.03;48.12
42671;BME280;28283;55.426;37.756;2023-08-21T09:12:13;99493.09;;;22.26;46.53
42671;BME280;28283;55.426;37.756;2023-08-21T09:17:14;99473.88;;;22.62;46.35
42671;BME280;28283;55.426;37.756;2023-08-21T09:27:18;99468.41;;;22.62;45.38
42671;BME280;28283;55.426;37.756;2023-08-21T09:32:18;99458.03;;;22.39;45.34
42671;BME280;28283;55.426;37.756;2023-08-21T09:37:19;99430.66;;;22.44;45.12
42671;BME280;28283;55.426;37.756;2023-08-21T09:42:20;99474.28;;;23.00;45.18
42671;BME280;28283;55.426;37.756;2023-08-21T09:47:23;99449.94;;;22.99;44.97
42671;BME280;28283;55.426;37.756;2023-08-21T09:52:26;99452.81;;;22.53;44.63
42671;BME280;28283;55.426;37.756;2023-08-21T09:57:27;99463.19;;;22.56;45.31
42671;BME280;28283;55.426;37.756;2023-08-21T10:02:28;99425.06;;;22.75;45.30
42671;BME280;28283;55.426;37.756;2023-08-21T10:07:29;99444.75;;;22.92;44.94
42671;BME280;28283;55.426;37.756;2023-08-21T10:12:30;99450.13;;;23.18;43.84
42671;BME280;28283;55.426;37.756;2023-08-21T10:17:31;99435.09;;;23.10;43.52
42671;BME280;28283;55.426;37.756;2023-08-21T10:22:44;99458.56;;;23.32;44.08
42671;BME280;28283;55.426;37.756;2023-08-21T10:27:45;99447.34;;;23.28;43.32
42671;BME280;28283;55.426;37.756;2023-08-21T10:32:47;99436.56;;;22.82;43.56
42671;BME280;28283;55.426;37.756;2023-08-21T10:38:14;99435.72;;;22.86;43.43
42671;BME280;28283;55.426;37.756;2023-08-21T10:43:41;99431.75;;;23.18;43.73
42671;BME280;28283;55.426;37.756;2023-08-21T10:48:45;99431.28;;;23.01;43.57
42671;BME280;28283;55.426;37.756;2023-08-21T10:53:46;99439.69;;;23.64;41.50
42671;BME280;28283;55.426;37.756;2023-08-21T10:58:47;99397.31;;;23.81;40.42
42671;BME280;28283;55.426;37.756;2023-08-21T11:03:51;99440.06;;;24.51;39.33
42671;BME280;28283;55.426;37.756;2023-08-21T11:08:52;99405.81;;;24.91;39.66
42671;BME280;28283;55.426;37.756;2023-08-21T11:13:55;99408.56;;;24.43;39.65
42671;BME280;28283;55.426;37.756;2023-08-21T11:18:56;99424.22;;;23.84;40.22
42671;BME280;28283;55.426;37.756;2023-08-21T11:23:56;99370.00;;;23.31;40.28
42671;BME280;28283;55.426;37.756;2023-08-21T11:28:57;99374.56;;;23.75;39.41
42671;BME280;28283;55.426;37.756;2023-08-21T11:33:58;99401.84;;;24.54;38.75
42671;BME280;28283;55.426;37.756;2023-08-21T11:39:00;99409.66;;;25.52;38.28
42671;BME280;28283;55.426;37.756;2023-08-21T11:44:02;99403.34;;;26.18;37.02
42671;BME280;28283;55.426;37.756;2023-08-21T11:49:04;99367.44;;;26.23;36.41
42671;BME280;28283;55.426;37.756;2023-08-21T11:54:06;99388.25;;;26.15;36.67
42671;BME280;28283;55.426;37.756;2023-08-21T11:59:07;99332.44;;;25.77;36.58
42671;BME280;28283;55.426;37.756;2023-08-21T12:04:16;99389.88;;;25.83;36.84
42671;BME280;28283;55.426;37.756;2023-08-21T12:09:18;99380.19;;;26.05;36.78
42671;BME280;28283;55.426;37.756;2023-08-21T12:14:22;99391.53;;;26.45;35.24
42671;BME280;28283;55.426;37.756;2023-08-21T12:19:24;99372.88;;;26.28;35.25
42671;BME280;28283;55.426;37.756;2023-08-21T12:24:24;99384.41;;;26.30;35.34
42671;BME280;28283;55.426;37.756;2023-08-21T12:29:25;99387.13;;;26.16;34.31
42671;BME280;28283;55.426;37.756;2023-08-21T12:34:26;99356.81;;;26.16;34.34
42671;BME280;28283;55.426;37.756;2023-08-21T12:39:27;99346.22;;;26.51;33.95
42671;BME280;28283;55.426;37.756;2023-08-21T12:44:27;99365.22;;;26.80;33.58
42671;BME280;28283;55.426;37.756;2023-08-21T12:49:28;99320.91;;;26.21;34.22
42671;BME280;28283;55.426;37.756;2023-08-21T12:54:28;99363.13;;;26.03;34.99
42671;BME280;28283;55.426;37.756;2023-08-21T12:59:29;99350.09;;;25.76;35.58
42671;BME280;28283;55.426;37.756;2023-08-21T13:04:29;99304.00;;;25.34;36.06
42671;BME280;28283;55.426;37.756;2023-08-21T13:09:30;99341.44;;;25.49;36.20
42671;BME280;28283;55.426;37.756;2023-08-21T13:14:31;99340.94;;;25.09;36.89
42671;BME280;28283;55.426;37.756;2023-08-21T13:19:31;99325.00;;;24.68;37.47
42671;BME280;28283;55.426;37.756;2023-08-21T13:24:32;99329.41;;;24.69;37.55
42671;BME280;28283;55.426;37.756;2023-08-21T13:29:33;99340.75;;;24.82;36.77
42671;BME280;28283;55.426;37.756;2023-08-21T13:34:33;99336.06;;;24.63;36.94
42671;BME280;28283;55.426;37.756;2023-08-21T13:39:34;99322.81;;;24.46;36.74
42671;BME280;28283;55.426;37.756;2023-08-21T13:44:34;99329.50;;;24.35;36.86
42671;BME280;28283;55.426;37.756;2023-08-21T13:49:35;99317.78;;;24.05;37.21
42671;BME280;28283;55.426;37.756;2023-08-21T13:54:36;99308.94;;;23.84;37.24
42671;BME280;28283;55.426;37.756;2023-08-21T13:59:36;99323.31;;;24.00;38.11
42671;BME280;28283;55.426;37.756;2023-08-21T14:04:37;99311.53;;;23.99;37.53
42671;BME280;28283;55.426;37.756;2023-08-21T14:09:38;99316.13;;;24.04;37.61
42671;BME280;28283;55.426;37.756;2023-08-21T14:14:39;99294.75;;;24.01;36.41
42671;BME280;28283;55.426;37.756;2023-08-21T14:19:39;99306.06;;;23.65;37.48
42671;BME280;28283;55.426;37.756;2023-08-21T14:24:40;99312.50;;;23.79;37.86
42671;BME280;28283;55.426;37.756;2023-08-21T14:29:42;99309.50;;;23.81;37.72
42671;BME280;28283;55.426;37.756;2023-08-21T14:34:44;99315.16;;;23.60;37.98
42671;BME280;28283;55.426;37.756;2023-08-21T14:39:44;99291.22;;;23.37;38.00
42671;BME280;28283;55.426;37.756;2023-08-21T14:44:45;99246.41;;;22.78;38.79
42671;BME280;28283;55.426;37.756;2023-08-21T14:49:45;99289.84;;;22.95;38.67
42671;BME280;28283;55.426;37.756;2023-08-21T14:54:49;99302.81;;;22.84;39.76
42671;BME280;28283;55.426;37.756;2023-08-21T14:59:50;99307.72;;;22.87;39.62
42671;BME280;28283;55.426;37.756;2023-08-21T15:04:51;99279.78;;;22.85;39.30
42671;BME280;28283;55.426;37.756;2023-08-21T15:09:51;99297.47;;;23.08;39.29
42671;BME280;28283;55.426;37.756;2023-08-21T15:14:52;99300.44;;;23.17;38.87
42671;BME280;28283;55.426;37.756;2023-08-21T15:19:53;99234.59;;;22.77;38.77
42671;BME280;28283;55.426;37.756;2023-08-21T15:24:53;99253.75;;;22.82;38.64
42671;BME280;28283;55.426;37.756;2023-08-21T15:29:54;99299.09;;;23.04;38.86
42671;BME280;28283;55.426;37.756;2023-08-21T15:34:54;99283.63;;;22.84;39.12
42671;BME280;28283;55.426;37.756;2023-08-21T15:39:55;99305.22;;;22.91;39.55
42671;BME280;28283;55.426;37.756;2023-08-21T15:44:55;99299.25;;;22.83;39.18
42671;BME280;28283;55.426;37.756;2023-08-21T15:49:58;99297.69;;;22.72;39.14
42671;BME280;28283;55.426;37.756;2023-08-21T15:54:58;99295.81;;;22.57;39.51
42671;BME280;28283;55.426;37.756;2023-08-21T15:59:59;99304.66;;;22.49;40.21
42671;BME280;28283;55.426;37.756;2023-08-21T16:04:59;99292.91;;;22.38;40.61
42671;BME280;28283;55.426;37.756;2023-08-21T16:10:00;99310.16;;;22.39;42.91
42671;BME280;28283;55.426;37.756;2023-08-21T16:15:00;99297.03;;;22.30;41.69
42671;BME280;28283;55.426;37.756;2023-08-21T16:20:01;99306.63;;;22.18;42.64
42671;BME280;28283;55.426;37.756;2023-08-21T16:25:05;99301.22;;;22.02;42.65
42671;BME280;28283;55.426;37.756;2023-08-21T16:30:07;99295.78;;;21.77;44.87
42671;BME280;28283;55.426;37.756;2023-08-21T16:35:08;99304.81;;;21.77;44.93
42671;BME280;28283;55.426;37.756;2023-08-21T16:40:09;99310.03;;;21.63;46.86
42671;BME280;28283;55.426;37.756;2023-08-21T16:45:10;99297.47;;;21.47;45.89
42671;BME280;28283;55.426;37.756;2023-08-21T16:50:14;99301.28;;;21.35;48.21
42671;BME280;28283;55.426;37.756;2023-08-21T16:55:15;99308.66;;;21.25;47.01
42671;BME280;28283;55.426;37.756;2023-08-21T17:00:16;99307.53;;;21.21;48.44
42671;BME280;28283;55.426;37.756;2023-08-21T17:05:16;99281.84;;;20.91;49.03
42671;BME280;28283;55.426;37.756;2023-08-21T17:10:17;99299.03;;;20.91;50.14
42671;BME280;28283;55.426;37.756;2023-08-21T17:15:18;99288.63;;;20.78;50.93
42671;BME280;28283;55.426;37.756;2023-08-21T17:20:20;99280.91;;;20.59;52.24
42671;BME280;28283;55.426;37.756;2023-08-21T17:25:21;99307.13;;;20.60;53.59
42671;BME280;28283;55.426;37.756;2023-08-21T17:30:21;99303.81;;;20.48;53.97
42671;BME280;28283;55.426;37.756;2023-08-21T17:35:22;99297.78;;;20.41;53.55
42671;BME280;28283;55.426;37.756;2023-08-21T17:40:22;99291.72;;;20.29;54.54
42671;BME280;28283;55.426;37.756;2023-08-21T17:45:23;99284.03;;;20.15;55.79
42671;BME280;28283;55.426;37.756;2023-08-21T17:50:24;99293.84;;;20.16;56.14
42671;BME280;28283;55.426;37.756;2023-08-21T17:55:24;99278.19;;;19.96;56.59
42671;BME280;28283;55.426;37.756;2023-08-21T18:00:25;99294.97;;;20.26;54.05
42671;BME280;28283;55.426;37.756;2023-08-21T18:05:26;99291.50;;;19.88;57.11
42671;BME280;28283;55.426;37.756;2023-08-21T18:10:31;99253.28;;;19.45;57.53
42671;BME280;28283;55.426;37.756;2023-08-21T18:15:32;99216.22;;;19.06;58.27
42671;BME280;28283;55.426;37.756;2023-08-21T18:20:54;99286.56;;;19.47;58.40
42671;BME280;28283;55.426;37.756;2023-08-21T18:25:55;99275.78;;;19.30;59.18
42671;BME280;28283;55.426;37.756;2023-08-21T18:30:58;99287.81;;;19.34;58.84
42671;BME280;28283;55.426;37.756;2023-08-21T18:35:59;99273.03;;;19.25;59.64
42671;BME280;28283;55.426;37.756;2023-08-21T18:41:01;99263.69;;;19.16;60.17
42671;BME280;28283;55.426;37.756;2023-08-21T18:46:01;99277.00;;;19.44;58.32
42671;BME280;28283;55.426;37.756;2023-08-21T18:51:02;99215.50;;;18.89;60.70
42671;BME280;28283;55.426;37.756;2023-08-21T18:56:03;99271.75;;;19.33;59.53
42671;BME280;28283;55.426;37.756;2023-08-21T19:01:05;99270.84;;;19.27;57.62
42671;BME280;28283;55.426;37.756;2023-08-21T19:06:06;99236.03;;;18.75;57.87
42671;BME280;28283;55.426;37.756;2023-08-21T19:11:06;99278.66;;;19.13;57.36
42671;BME280;28283;55.426;37.756;2023-08-21T19:16:08;99160.81;;;18.09;58.52
42671;BME280;28283;55.426;37.756;2023-08-21T19:21:09;99249.72;;;18.53;58.20
42671;BME280;28283;55.426;37.756;2023-08-21T19:26:10;99274.22;;;18.80;57.03
42671;BME280;28283;55.426;37.756;2023-08-21T19:31:11;99261.91;;;18.50;56.89
42671;BME280;28283;55.426;37.756;2023-08-21T19:36:14;99270.69;;;18.79;56.49
42671;BME280;28283;55.426;37.756;2023-08-21T19:41:15;99268.53;;;18.54;57.91
42671;BME280;28283;55.426;37.756;2023-08-21T19:46:15;99279.00;;;18.67;56.52
42671;BME280;28283;55.426;37.756;2023-08-21T19:51:16;99274.88;;;18.38;58.17
42671;BME280;28283;55.426;37.756;2023-08-21T19:56:16;99263.00;;;18.49;56.98
42671;BME280;28283;55.426;37.756;2023-08-21T20:01:17;99267.78;;;18.15;59.28
42671;BME280;28283;55.426;37.756;2023-08-21T20:06:18;99268.16;;;18.23;57.24
42671;BME280;28283;55.426;37.756;2023-08-21T20:11:18;99268.28;;;17.89;60.14
42671;BME280;28283;55.426;37.756;2023-08-21T20:16:19;99276.66;;;17.71;60.42
42671;BME280;28283;55.426;37.756;2023-08-21T20:21:20;99241.59;;;17.52;60.61
42671;BME280;28283;55.426;37.756;2023-08-21T20:26:21;99266.16;;;17.58;60.52
42671;BME280;28283;55.426;37.756;2023-08-21T20:31:24;99245.25;;;17.41;61.26
42671;BME280;28283;55.426;37.756;2023-08-21T20:36:26;99234.38;;;17.24;61.86
42671;BME280;28283;55.426;37.756;2023-08-21T20:41:27;99219.25;;;17.11;61.21
42671;BME280;28283;55.426;37.756;2023-08-21T20:46:29;99264.25;;;17.24;61.11
42671;BME280;28283;55.426;37.756;2023-08-21T20:51:29;99260.47;;;17.25;60.97
42671;BME280;28283;55.426;37.756;2023-08-21T20:56:30;99267.22;;;17.23;60.84
42671;BME280;28283;55.426;37.756;2023-08-21T21:01:30;99259.06;;;17.23;61.70
42671;BME280;28283;55.426;37.756;2023-08-21T21:06:34;99240.97;;;17.11;61.74
42671;BME280;28283;55.426;37.756;2023-08-21T21:11:36;99239.81;;;17.07;61.37
42671;BME280;28283;55.426;37.756;2023-08-21T21:16:36;99237.09;;;17.07;61.16
42671;BME280;28283;55.426;37.756;2023-08-21T21:21:38;99177.16;;;16.80;61.08
42671;BME280;28283;55.426;37.756;2023-08-21T21:26:39;99240.81;;;17.18;60.81
42671;BME280;28283;55.426;37.756;2023-08-21T21:31:40;99231.25;;;17.15;60.64
42671;BME280;28283;55.426;37.756;2023-08-21T21:36:41;99221.22;;;17.16;60.77
42671;BME280;28283;55.426;37.756;2023-08-21T21:41:42;99229.84;;;17.30;59.83
42671;BME280;28283;55.426;37.756;2023-08-21T21:46:43;99186.41;;;17.13;60.06
42671;BME280;28283;55.426;37.756;2023-08-21T21:51:44;99214.50;;;17.41;59.79
42671;BME280;28283;55.426;37.756;2023-08-21T21:56:44;99220.44;;;17.54;59.13
42671;BME280;28283;55.426;37.756;2023-08-21T22:01:45;99201.63;;;17.31;59.13
42671;BME280;28283;55.426;37.756;2023-08-21T22:06:45;99209.31;;;17.56;58.54
42671;BME280;28283;55.426;37.756;2023-08-21T22:11:46;99167.88;;;17.27;59.03
42671;BME280;28283;55.426;37.756;2023-08-21T22:16:47;99201.47;;;17.60;58.37
42671;BME280;28283;55.426;37.756;2023-08-21T22:21:48;99170.91;;;17.30;58.63
42671;BME280;28283;55.426;37.756;2023-08-21T22:26:49;99195.47;;;17.58;58.38
42671;BME280;28283;55.426;37.756;2023-08-21T22:31:50;99157.66;;;17.17;59.73
42671;BME280;28283;55.426;37.756;2023-08-21T22:36:50;99181.91;;;17.41;58.79
42671;BME280;28283;55.426;37.756;2023-08-21T22:41:52;99155.06;;;17.05;60.34
42671;BME280;28283;55.426;37.756;2023-08-21T22:46:53;99174.47;;;17.14;60.44
42671;BME280;28283;55.426;37.756;2023-08-21T22:51:53;99145.75;;;17.01;60.51
42671;BME280;28283;55.426;37.756;2023-08-21T22:56:54;99157.69;;;17.00;59.97
42671;BME280;28283;55.426;37.756;2023-08-21T23:01:54;99159.31;;;17.01;60.96
42671;BME280;28283;55.426;37.756;2023-08-21T23:06:55;99157.53;;;16.90;61.33
42671;BME280;28283;55.426;37.756;2023-08-21T23:11:55;99122.94;;;16.68;61.83
42671;BME280;28283;55.426;37.756;2023-08-21T23:16:56;99084.22;;;16.39;60.94
42671;BME280;28283;55.426;37.756;2023-08-21T23:21:57;99135.13;;;16.66;61.53
42671;BME280;28283;55.426;37.756;2023-08-21T23:26:58;99149.13;;;16.91;60.07
42671;BME280;28283;55.426;37.756;2023-08-21T23:32:00;99144.19;;;16.71;61.76
42671;BME280;28283;55.426;37.756;2023-08-21T23:37:00;99145.16;;;16.65;62.12
42671;BME280;28283;55.426;37.756;2023-08-21T23:42:01;99147.81;;;16.60;62.26
42671;BME280;28283;55.426;37.756;2023-08-21T23:47:03;99142.03;;;16.56;62.42
42671;BME280;28283;55.426;37.756;2023-08-21T23:52:04;99076.94;;;16.11;62.57
42671;BME280;28283;55.426;37.756;2023-08-21T23:57:04;99113.41;;;16.32;63.02
